createdAt,value
2018-10-16T00:01:20.445Z,12.13
2018-10-16T00:03:49.593Z,12.50
2018-10-16T00:06:19.378Z,11.17
2018-10-16T00:08:48.628Z,11.50
2018-10-16T00:11:17.848Z,10.77
2018-10-16T00:13:47.114Z,10.70
2018-10-16T00:16:16.364Z,11.83
2018-10-16T00:18:45.682Z,11.60
2018-10-16T00:21:14.900Z,11.60
2018-10-16T00:23:44.146Z,12.10
2018-10-16T00:26:13.335Z,10.87
2018-10-16T00:28:42.651Z,11.80
2018-10-16T00:31:11.850Z,11.30
2018-10-16T00:33:41.084Z,13.13
2018-10-16T00:36:10.373Z,11.00
2018-10-16T00:38:39.538Z,11.30
2018-10-16T00:41:08.754Z,11.50
2018-10-16T00:43:37.952Z,11.83
2018-10-16T00:46:07.383Z,10.90
2018-10-16T00:48:36.493Z,11.17
2018-10-16T00:51:05.761Z,11.53
2018-10-16T00:53:34.898Z,11.43
2018-10-16T00:56:04.129Z,12.00
2018-10-16T00:58:34.152Z,11.57
2018-10-16T01:01:03.346Z,11.23
2018-10-16T01:03:32.485Z,11.43
2018-10-16T01:06:02.561Z,10.90
2018-10-16T01:08:31.701Z,11.10
2018-10-16T01:11:00.854Z,11.70
2018-10-16T01:13:30.201Z,10.90
2018-10-16T01:15:59.376Z,11.93
2018-10-16T01:18:28.713Z,11.53
2018-10-16T01:20:57.886Z,11.67
2018-10-16T01:23:27.153Z,10.80
2018-10-16T01:25:56.303Z,12.17
2018-10-16T01:28:25.635Z,12.20
2018-10-16T01:30:54.879Z,12.07
2018-10-16T01:33:24.028Z,11.70
2018-10-16T01:35:53.254Z,11.90
2018-10-16T01:38:22.578Z,12.20
2018-10-16T01:40:51.804Z,11.77
2018-10-16T01:43:21.149Z,11.67
2018-10-16T01:45:50.370Z,12.37
2018-10-16T01:48:19.582Z,11.83
2018-10-16T01:50:48.649Z,11.80
2018-10-16T01:53:17.954Z,13.20
2018-10-16T01:55:47.183Z,13.87
2018-10-16T01:58:16.361Z,12.43
2018-10-16T02:00:46.662Z,11.90
2018-10-16T02:03:15.963Z,12.20
2018-10-16T02:05:45.194Z,13.50
2018-10-16T02:08:14.380Z,12.70
2018-10-16T02:10:43.618Z,13.10
2018-10-16T02:13:12.764Z,13.73
2018-10-16T02:15:41.866Z,13.47
2018-10-16T02:18:11.066Z,12.93
2018-10-16T02:20:40.263Z,13.23
2018-10-16T02:23:09.426Z,12.83
2018-10-16T02:25:38.598Z,12.53
2018-10-16T02:28:07.853Z,13.30
2018-10-16T02:30:37.035Z,14.30
2018-10-16T02:33:06.534Z,12.97
2018-10-16T02:35:35.769Z,12.97
2018-10-16T02:38:05.205Z,12.53
2018-10-16T02:40:34.381Z,13.03
2018-10-16T02:43:03.582Z,13.87
2018-10-16T02:45:32.697Z,13.50
2018-10-16T02:48:01.947Z,14.00
2018-10-16T02:50:31.129Z,12.93
2018-10-16T02:53:00.435Z,14.43
2018-10-16T02:55:29.555Z,13.13
2018-10-16T02:57:58.737Z,14.00
2018-10-16T03:00:27.984Z,14.07
2018-10-16T03:02:57.240Z,14.83
2018-10-16T03:05:26.454Z,13.47
2018-10-16T03:07:55.748Z,14.97
2018-10-16T03:10:25.093Z,13.83
2018-10-16T03:12:54.956Z,14.63
2018-10-16T03:15:24.154Z,13.77
2018-10-16T03:17:53.370Z,14.67
2018-10-16T03:20:22.494Z,13.23
2018-10-16T03:22:51.651Z,13.73
2018-10-16T03:25:20.904Z,14.07
2018-10-16T03:27:50.129Z,13.97
2018-10-16T03:30:19.574Z,14.73
2018-10-16T03:32:48.767Z,13.63
2018-10-16T03:35:18.038Z,14.13
2018-10-16T03:37:47.237Z,14.03
2018-10-16T03:40:16.425Z,13.73
2018-10-16T03:42:45.774Z,13.73
2018-10-16T03:45:15.014Z,14.43
2018-10-16T03:47:44.245Z,13.60
2018-10-16T03:50:13.432Z,15.63
2018-10-16T03:52:42.635Z,14.03
2018-10-16T03:55:12.003Z,14.33
2018-10-16T03:57:40.982Z,13.43
2018-10-16T04:00:11.104Z,14.67
2018-10-16T04:02:40.500Z,14.27
2018-10-16T04:05:09.769Z,13.20
2018-10-16T04:07:39.702Z,14.13
2018-10-16T04:10:09.566Z,14.50
2018-10-16T04:12:38.785Z,15.00
2018-10-16T04:15:09.283Z,15.33
2018-10-16T04:17:39.221Z,15.27
2018-10-16T04:20:08.722Z,16.17
2018-10-16T04:22:38.320Z,14.73
2018-10-16T04:25:08.074Z,15.70
2018-10-16T04:27:37.138Z,15.80
2018-10-16T04:30:07.395Z,15.00
2018-10-16T04:32:36.641Z,15.80
2018-10-16T04:35:10.903Z,15.27
2018-10-16T04:37:40.165Z,15.57
2018-10-16T04:40:09.457Z,16.33
2018-10-16T04:42:38.746Z,16.07
2018-10-16T04:45:08.703Z,15.00
2018-10-16T04:47:38.170Z,17.07
2018-10-16T04:50:07.474Z,15.27
2018-10-16T04:52:36.605Z,16.73
2018-10-16T04:55:06.329Z,14.33
2018-10-16T04:57:35.593Z,15.53
2018-10-16T05:00:05.561Z,15.03
2018-10-16T05:02:34.813Z,16.73
2018-10-16T05:05:04.233Z,15.30
2018-10-16T05:07:33.607Z,16.50
2018-10-16T05:10:02.800Z,15.53
2018-10-16T05:12:31.994Z,15.13
2018-10-16T05:15:01.221Z,17.50
2018-10-16T05:17:30.489Z,16.93
2018-10-16T05:19:59.734Z,16.07
2018-10-16T05:22:29.117Z,16.07
2018-10-16T05:24:58.394Z,16.73
2018-10-16T05:27:27.602Z,16.10
2018-10-16T05:29:56.784Z,17.13
2018-10-16T05:32:25.929Z,16.00
2018-10-16T05:34:55.078Z,15.37
2018-10-16T05:37:24.314Z,16.20
2018-10-16T05:39:53.557Z,16.97
2018-10-16T05:42:22.738Z,17.50
2018-10-16T05:44:51.942Z,17.10
2018-10-16T05:47:21.206Z,17.53
2018-10-16T05:49:50.413Z,17.43
2018-10-16T05:52:19.711Z,16.83
2018-10-16T05:54:48.928Z,16.73
2018-10-16T05:57:18.189Z,16.80
2018-10-16T05:59:47.378Z,17.07
2018-10-16T06:02:16.697Z,18.70
2018-10-16T06:04:45.931Z,17.10
2018-10-16T06:07:15.090Z,17.07
2018-10-16T06:09:44.395Z,15.90
2018-10-16T06:12:13.573Z,17.80
2018-10-16T06:14:43.230Z,18.10
2018-10-16T06:17:12.350Z,16.83
2018-10-16T06:19:41.504Z,17.67
2018-10-16T06:22:10.602Z,17.23
2018-10-16T06:24:39.675Z,18.67
2018-10-16T06:27:08.828Z,18.40
2018-10-16T06:29:37.960Z,17.97
2018-10-16T06:32:07.992Z,17.50
2018-10-16T06:34:37.303Z,18.33
2018-10-16T06:37:06.641Z,18.83
2018-10-16T06:39:35.917Z,19.60
2018-10-16T06:42:05.189Z,18.80
2018-10-16T06:44:34.350Z,18.03
2018-10-16T06:47:03.505Z,18.83
2018-10-16T06:49:32.769Z,19.97
2018-10-16T06:52:02.074Z,18.50
2018-10-16T06:54:31.615Z,20.47
2018-10-16T06:57:00.922Z,20.10
2018-10-16T06:59:30.094Z,20.80
2018-10-16T07:01:59.281Z,20.57
2018-10-16T07:04:28.469Z,20.07
2018-10-16T07:06:57.703Z,20.93
2018-10-16T07:09:27.194Z,20.47
2018-10-16T07:11:56.490Z,19.83
2018-10-16T07:14:26.027Z,19.37
2018-10-16T07:16:55.241Z,19.73
2018-10-16T07:19:24.493Z,19.77
2018-10-16T07:21:53.905Z,20.33
2018-10-16T07:24:23.014Z,20.53
2018-10-16T07:26:52.118Z,19.53
2018-10-16T07:29:21.290Z,20.17
2018-10-16T07:31:50.485Z,19.77
2018-10-16T07:34:19.562Z,21.10
2018-10-16T07:36:48.737Z,19.77
2018-10-16T07:39:17.850Z,19.07
2018-10-16T07:41:47.103Z,19.93
2018-10-16T07:44:16.310Z,19.63
2018-10-16T07:46:45.462Z,19.77
2018-10-16T07:49:14.625Z,21.97
2018-10-16T07:51:43.886Z,18.50
2018-10-16T07:54:13.143Z,20.30
2018-10-16T07:56:42.425Z,20.53
2018-10-16T07:59:11.496Z,18.17
2018-10-16T08:01:40.581Z,20.17
2018-10-16T08:04:09.802Z,19.03
2018-10-16T08:06:39.108Z,19.80
2018-10-16T08:09:12.358Z,20.93
2018-10-16T08:11:48.603Z,20.67
2018-10-16T08:14:18.854Z,19.10
2018-10-16T08:16:49.183Z,19.00
2018-10-16T08:19:18.305Z,20.43
2018-10-16T08:21:48.374Z,18.67
2018-10-16T08:24:17.618Z,20.20
2018-10-16T08:26:46.997Z,17.87
2018-10-16T08:29:16.230Z,19.03
2018-10-16T08:31:45.533Z,20.03
2018-10-16T08:34:14.808Z,19.07
2018-10-16T08:36:44.060Z,18.87
2018-10-16T08:39:21.129Z,18.87
2018-10-16T08:46:08.770Z,19.03
2018-10-16T08:48:48.798Z,18.30
2018-10-16T08:51:28.833Z,18.77
2018-10-16T08:53:57.997Z,17.20
2018-10-16T08:56:27.217Z,17.33
2018-10-16T08:58:56.517Z,18.20
2018-10-16T09:01:25.799Z,17.65
2018-10-16T09:03:54.971Z,16.87
2018-10-16T09:06:24.204Z,17.77
2018-10-16T09:08:53.322Z,16.85
2018-10-16T09:11:22.615Z,16.95
2018-10-16T09:13:51.982Z,17.25
2018-10-16T09:16:22.019Z,18.52
2018-10-16T09:18:51.338Z,16.82
2018-10-16T09:21:21.490Z,16.93
2018-10-16T09:23:50.686Z,17.55
2018-10-16T09:26:19.979Z,15.63
2018-10-16T09:28:49.122Z,15.60
2018-10-16T09:31:18.314Z,16.93
2018-10-16T09:33:47.573Z,16.15
2018-10-16T09:36:16.734Z,15.68
2018-10-16T09:38:46.022Z,15.40
2018-10-16T09:41:15.322Z,17.80
2018-10-16T09:43:44.498Z,15.20
2018-10-16T09:46:13.730Z,15.43
2018-10-16T09:48:43.054Z,16.95
2018-10-16T09:51:12.335Z,15.60
2018-10-16T09:53:41.524Z,16.45
2018-10-16T09:56:10.740Z,15.78
2018-10-16T09:58:39.892Z,15.50
2018-10-16T10:01:14.159Z,15.23
2018-10-16T10:03:43.470Z,15.30
2018-10-16T10:06:12.633Z,14.68
2018-10-16T10:08:41.912Z,15.35
2018-10-16T10:11:11.107Z,15.80
2018-10-16T10:13:40.283Z,15.72
2018-10-16T10:16:09.541Z,16.85
2018-10-16T10:18:38.805Z,15.68
2018-10-16T10:21:08.065Z,16.87
2018-10-16T10:23:37.295Z,15.05
2018-10-16T10:26:06.543Z,15.03
2018-10-16T10:28:35.713Z,15.53
2018-10-16T10:31:04.887Z,15.13
2018-10-16T10:33:33.998Z,14.95
2018-10-16T10:36:03.162Z,15.20
2018-10-16T10:38:32.482Z,14.90
2018-10-16T10:41:01.839Z,14.90
2018-10-16T10:43:31.010Z,14.93
2018-10-16T10:46:00.205Z,15.28
2018-10-16T10:48:29.439Z,14.80
2018-10-16T10:50:58.920Z,15.58
2018-10-16T10:53:27.846Z,15.90
2018-10-16T10:55:57.219Z,15.80
2018-10-16T10:58:26.489Z,16.25
2018-10-16T11:00:55.718Z,15.88
2018-10-16T11:03:25.143Z,15.40
2018-10-16T11:05:54.303Z,15.40
2018-10-16T11:08:23.605Z,14.85
2018-10-16T11:10:53.545Z,15.53
2018-10-16T11:13:22.758Z,15.10
2018-10-16T11:15:51.854Z,14.25
2018-10-16T11:18:21.168Z,15.00
2018-10-16T11:20:50.318Z,14.87
2018-10-16T11:23:19.485Z,14.15
2018-10-16T11:25:48.760Z,13.72
2018-10-16T11:28:17.989Z,14.28
2018-10-16T11:30:47.235Z,14.13
2018-10-16T11:33:16.500Z,13.30
2018-10-16T11:35:45.700Z,14.43
2018-10-16T11:38:14.935Z,14.80
2018-10-16T11:40:44.122Z,13.85
2018-10-16T11:43:13.489Z,13.83
2018-10-16T11:45:42.779Z,14.63
2018-10-16T11:48:11.981Z,14.25
2018-10-16T11:50:41.176Z,14.15
2018-10-16T11:53:10.375Z,14.13
2018-10-16T11:55:39.554Z,13.40
2018-10-16T11:58:08.837Z,13.50
2018-10-16T12:00:38.035Z,13.60
2018-10-16T12:03:07.334Z,13.35
2018-10-16T12:05:36.863Z,14.20
2018-10-16T12:08:06.207Z,13.78
2018-10-16T12:10:35.231Z,13.05
2018-10-16T12:13:04.532Z,13.68
2018-10-16T12:15:33.798Z,14.58
2018-10-16T12:18:13.914Z,13.78
2018-10-16T12:20:46.914Z,14.53
2018-10-16T12:23:16.370Z,12.82
2018-10-16T12:25:45.657Z,14.35
2018-10-16T12:28:14.896Z,14.28
2018-10-16T12:30:44.185Z,15.00
2018-10-16T12:33:13.391Z,13.30
2018-10-16T12:35:42.531Z,12.80
2018-10-16T12:38:11.762Z,13.68
2018-10-16T12:40:40.966Z,14.43
2018-10-16T12:43:10.547Z,13.88
2018-10-16T12:45:39.806Z,12.68
2018-10-16T12:48:09.292Z,13.40
2018-10-16T12:50:38.519Z,14.50
2018-10-16T12:53:08.214Z,13.68
2018-10-16T12:55:37.336Z,12.75
2018-10-16T12:58:06.666Z,13.05
2018-10-16T13:00:35.833Z,13.28
2018-10-16T13:03:05.158Z,12.93
2018-10-16T13:05:34.290Z,13.53
2018-10-16T13:08:03.567Z,12.68
2018-10-16T13:10:32.750Z,12.73
2018-10-16T13:13:02.012Z,12.75
2018-10-16T13:15:31.237Z,12.43
2018-10-16T13:18:00.403Z,12.85
2018-10-16T13:20:29.557Z,12.73
2018-10-16T13:22:58.891Z,13.58
2018-10-16T13:25:27.911Z,12.35
2018-10-16T13:27:57.178Z,12.58
2018-10-16T13:30:26.462Z,13.65
2018-10-16T13:32:55.771Z,12.98
2018-10-16T13:35:25.066Z,13.18
2018-10-16T13:37:54.259Z,12.65
2018-10-16T13:40:23.546Z,12.25
2018-10-16T13:42:52.860Z,13.30
2018-10-16T13:45:21.993Z,13.18
2018-10-16T13:47:51.137Z,12.10
2018-10-16T13:50:20.298Z,12.53
2018-10-16T13:52:49.472Z,12.82
2018-10-16T13:55:18.706Z,13.43
2018-10-16T13:57:47.834Z,12.73
2018-10-16T14:00:18.304Z,12.75
2018-10-16T14:02:48.755Z,12.95
2018-10-16T14:05:18.104Z,12.18
2018-10-16T14:07:47.353Z,12.90
2018-10-16T14:10:17.195Z,12.50
2018-10-16T14:12:47.303Z,13.20
2018-10-16T14:15:17.011Z,13.38
2018-10-16T14:17:46.210Z,13.30
2018-10-16T14:20:15.487Z,12.05
2018-10-16T14:22:44.746Z,12.30
2018-10-16T14:25:15.218Z,12.93
2018-10-16T14:27:44.481Z,14.10
2018-10-16T14:30:14.856Z,12.78
2018-10-16T14:32:44.240Z,13.35
2018-10-16T14:35:14.060Z,12.15
2018-10-16T14:37:43.274Z,13.38
2018-10-16T14:40:14.399Z,12.53
2018-10-16T14:42:43.745Z,12.18
2018-10-16T14:45:13.698Z,12.68
2018-10-16T14:47:43.010Z,12.78
2018-10-16T14:50:13.939Z,12.85
2018-10-16T14:52:43.278Z,13.43
2018-10-16T14:55:12.457Z,11.88
2018-10-16T14:57:41.745Z,13.15
2018-10-16T15:00:12.410Z,13.60
2018-10-16T15:02:41.586Z,12.50
2018-10-16T15:05:12.613Z,12.80
2018-10-16T15:07:41.976Z,12.70
2018-10-16T15:10:11.249Z,12.43
2018-10-16T15:12:40.386Z,13.85
2018-10-16T15:15:10.246Z,12.33
2018-10-16T15:17:39.447Z,13.45
2018-10-16T15:20:10.117Z,13.58
2018-10-16T15:22:39.382Z,13.00
2018-10-16T15:25:09.603Z,13.10
2018-10-16T15:27:38.833Z,13.38
2018-10-16T15:30:09.314Z,13.75
2018-10-16T15:32:38.541Z,12.37
2018-10-16T15:35:09.162Z,13.38
2018-10-16T15:37:38.541Z,12.88
2018-10-16T15:40:09.138Z,12.98
2018-10-16T15:42:38.243Z,13.43
2018-10-16T15:45:09.861Z,13.20
2018-10-16T15:47:39.365Z,13.43
2018-10-16T15:50:09.218Z,12.98
2018-10-16T15:52:38.769Z,12.88
2018-10-16T15:55:08.682Z,13.05
2018-10-16T15:57:37.876Z,12.23
2018-10-16T16:00:10.501Z,14.13
2018-10-16T16:02:39.646Z,13.05
2018-10-16T16:05:08.801Z,13.93
2018-10-16T16:07:38.573Z,13.05
2018-10-16T16:10:09.666Z,12.60
2018-10-16T16:12:38.920Z,13.93
2018-10-16T16:15:09.578Z,13.50
2018-10-16T16:17:38.751Z,13.28
2018-10-16T16:20:09.333Z,13.00
2018-10-16T16:22:38.385Z,13.38
2018-10-16T16:25:09.536Z,13.22
2018-10-16T16:27:38.898Z,13.28
2018-10-16T16:30:10.089Z,13.75
2018-10-16T16:32:39.333Z,14.58
2018-10-16T16:35:08.620Z,15.25
2018-10-16T16:37:37.723Z,15.08
2018-10-16T16:40:09.544Z,13.17
2018-10-16T16:42:38.698Z,13.43
2018-10-16T16:45:08.793Z,13.53
2018-10-16T16:47:38.138Z,13.50
2018-10-16T16:50:08.534Z,13.15
2018-10-16T16:52:37.963Z,13.08
2018-10-16T16:55:08.848Z,12.93
2018-10-16T16:57:38.202Z,13.38
2018-10-16T17:00:09.883Z,14.65
2018-10-16T17:02:39.700Z,13.00
2018-10-16T17:05:09.551Z,14.05
2018-10-16T17:07:38.757Z,13.95
2018-10-16T17:10:08.869Z,14.43
2018-10-16T17:12:38.497Z,15.30
2018-10-16T17:15:09.735Z,14.67
2018-10-16T17:17:39.194Z,14.13
2018-10-16T17:20:09.491Z,14.37
2018-10-16T17:22:38.643Z,14.38
2018-10-16T17:25:09.101Z,14.78
2018-10-16T17:27:38.234Z,13.50
2018-10-16T17:30:10.347Z,15.50
2018-10-16T17:32:39.646Z,15.45
2018-10-16T17:35:09.749Z,14.50
2018-10-16T17:37:39.292Z,14.90
2018-10-16T17:40:10.422Z,14.87
2018-10-16T17:42:39.632Z,14.95
2018-10-16T17:45:10.707Z,15.43
2018-10-16T17:47:39.833Z,14.90
2018-10-16T17:50:11.415Z,16.62
2018-10-16T17:52:41.709Z,15.40
2018-10-16T17:55:11.854Z,15.57
2018-10-16T17:57:41.331Z,15.90
2018-10-16T18:00:15.036Z,19.10
2018-10-16T18:02:44.808Z,19.48
2018-10-16T18:05:14.647Z,17.20
2018-10-16T18:07:44.606Z,18.03
2018-10-16T18:10:13.981Z,17.40
2018-10-16T18:12:43.161Z,16.70
2018-10-16T18:15:13.625Z,16.27
2018-10-16T18:17:43.383Z,17.07
2018-10-16T18:20:14.405Z,17.20
2018-10-16T18:22:43.907Z,17.77
2018-10-16T18:25:13.237Z,18.20
2018-10-16T18:27:43.342Z,20.00
2018-10-16T18:30:12.829Z,19.03
2018-10-16T18:32:42.354Z,19.97
2018-10-16T18:35:11.853Z,18.57
2018-10-16T18:37:42.025Z,18.23
2018-10-16T18:40:11.936Z,19.50
2018-10-16T18:42:41.398Z,20.23
2018-10-16T18:45:12.191Z,19.50
2018-10-16T18:47:41.425Z,20.48
2018-10-16T18:50:11.842Z,19.40
2018-10-16T18:52:41.065Z,18.80
2018-10-16T18:55:11.853Z,19.00
2018-10-16T18:57:41.059Z,19.63
2018-10-16T19:00:12.489Z,21.47
2018-10-16T19:02:42.014Z,20.83
2018-10-16T19:05:11.615Z,21.50
2018-10-16T19:07:41.358Z,19.30
2018-10-16T19:10:10.658Z,19.50
2018-10-16T19:12:40.758Z,21.17
2018-10-16T19:15:11.901Z,21.87
2018-10-16T19:17:41.490Z,20.90
2018-10-16T19:20:12.073Z,19.83
2018-10-16T19:22:42.681Z,19.83
2018-10-16T19:25:12.851Z,20.73
2018-10-16T19:27:42.066Z,20.90
2018-10-16T19:30:12.096Z,22.07
2018-10-16T19:32:41.244Z,21.57
2018-10-16T19:35:11.874Z,22.37
2018-10-16T19:37:41.237Z,22.27
2018-10-16T19:40:10.455Z,21.50
2018-10-16T19:42:39.683Z,21.73
2018-10-16T19:45:09.580Z,19.50
2018-10-16T19:47:38.845Z,21.80
2018-10-16T19:50:08.922Z,22.37
2018-10-16T19:52:38.131Z,21.17
2018-10-16T19:55:07.386Z,20.37
2018-10-16T19:57:36.583Z,22.67
2018-10-16T20:00:06.496Z,22.20
2018-10-16T20:02:35.857Z,20.40
2018-10-16T20:05:05.265Z,22.67
2018-10-16T20:07:34.474Z,22.57
2018-10-16T20:10:03.691Z,22.10
2018-10-16T20:12:32.831Z,20.97
2018-10-16T20:15:02.110Z,21.97
2018-10-16T20:17:32.122Z,22.03
2018-10-16T20:20:01.258Z,21.73
2018-10-16T20:22:30.709Z,22.10
2018-10-16T20:24:59.902Z,23.27
2018-10-16T20:27:29.083Z,23.80
2018-10-16T20:29:58.217Z,24.50
2018-10-16T20:32:27.451Z,23.53
2018-10-16T20:34:56.633Z,23.97
2018-10-16T20:37:25.818Z,23.90
2018-10-16T20:39:55.405Z,23.30
2018-10-16T20:42:24.559Z,23.47
2018-10-16T20:44:53.745Z,23.10
2018-10-16T20:47:22.907Z,23.77
2018-10-16T20:49:52.034Z,23.55
2018-10-16T20:52:21.458Z,23.47
2018-10-16T20:54:51.109Z,24.10
2018-10-16T20:57:20.307Z,23.10
2018-10-16T20:59:49.707Z,23.50
2018-10-16T21:02:19.283Z,22.98
2018-10-16T21:04:48.662Z,23.80
2018-10-16T21:07:17.754Z,24.70
2018-10-16T21:09:46.955Z,23.33
2018-10-16T21:12:16.215Z,24.23
2018-10-16T21:14:45.382Z,25.07
2018-10-16T21:17:15.242Z,24.50
2018-10-16T21:19:44.703Z,22.93
2018-10-16T21:22:14.269Z,23.23
2018-10-16T21:24:43.484Z,23.87
2018-10-16T21:27:13.278Z,25.70
2018-10-16T21:29:42.455Z,26.77
2018-10-16T21:32:11.703Z,24.40
2018-10-16T21:34:40.806Z,26.40
2018-10-16T21:37:10.157Z,24.97
2018-10-16T21:39:39.700Z,26.90
2018-10-16T21:42:08.880Z,26.70
2018-10-16T21:44:38.083Z,26.50
2018-10-16T21:47:07.441Z,26.87
2018-10-16T21:49:37.195Z,27.80
2018-10-16T21:52:06.415Z,26.53
2018-10-16T21:54:35.709Z,29.97
2018-10-16T21:57:04.850Z,28.67
2018-10-16T21:59:34.311Z,29.03
2018-10-16T22:02:08.686Z,28.83
2018-10-16T22:04:39.804Z,27.80
2018-10-16T22:07:09.480Z,27.03
2018-10-16T22:09:38.587Z,27.50
2018-10-16T22:12:07.732Z,28.17
2018-10-16T22:14:36.977Z,28.23
2018-10-16T22:17:06.596Z,29.20
2018-10-16T22:19:35.894Z,28.33
2018-10-16T22:22:05.400Z,30.10
2018-10-16T22:24:34.635Z,29.63
2018-10-16T22:27:03.854Z,29.33
2018-10-16T22:29:33.168Z,29.27
2018-10-16T22:32:02.395Z,30.40
2018-10-16T22:34:31.731Z,28.97
2018-10-16T22:37:01.098Z,29.60
2018-10-16T22:39:30.339Z,29.33
2018-10-16T22:41:59.533Z,29.93
2018-10-16T22:44:29.509Z,29.43
2018-10-16T22:46:58.813Z,29.53
2018-10-16T22:49:28.038Z,31.10
2018-10-16T22:51:57.254Z,30.93
2018-10-16T22:54:26.420Z,30.57
2018-10-16T22:56:55.613Z,29.47
2018-10-16T22:59:24.841Z,30.93
2018-10-16T23:01:53.972Z,30.13
2018-10-16T23:04:23.179Z,29.50
2018-10-16T23:06:52.369Z,29.40
2018-10-16T23:09:21.666Z,30.00
2018-10-16T23:11:50.920Z,30.00
2018-10-16T23:14:20.415Z,30.97
2018-10-16T23:16:49.588Z,29.63
2018-10-16T23:19:18.819Z,30.17
2018-10-16T23:21:48.073Z,29.73
2018-10-16T23:24:17.249Z,30.57
2018-10-16T23:26:46.493Z,32.17
2018-10-16T23:29:15.658Z,30.60
2018-10-16T23:31:44.814Z,29.03
2018-10-16T23:34:13.968Z,30.13
2018-10-16T23:36:43.173Z,30.90
2018-10-16T23:39:13.918Z,29.90
2018-10-16T23:41:43.561Z,30.43
2018-10-16T23:44:13.039Z,28.90
2018-10-16T23:46:42.358Z,29.33
2018-10-16T23:49:11.621Z,28.53
2018-10-16T23:51:40.929Z,28.83
2018-10-16T23:54:10.238Z,30.57
2018-10-16T23:56:39.398Z,30.30
2018-10-16T23:59:08.721Z,29.87
